sensor_id;sensor_type;location;lat;lon;timestamp;pressure;altitude;pressure_sealevel;temperature;humidity
76994;BME280;65927;47.508;19.002;2022-12-18T17:27:26;;;;25.82;42.79
76994;BME280;65927;47.508;19.002;2022-12-18T17:28:00;;;;23.69;47.21
76994;BME280;65927;47.508;19.002;2022-12-18T17:28:33;;;;22.77;50.72
76994;BME280;65927;47.508;19.002;2022-12-18T17:29:07;;;;22.50;52.10
76994;BME280;65927;47.508;19.002;2022-12-18T17:29:40;;;;22.40;52.88
76994;BME280;65927;47.508;19.002;2022-12-18T17:30:19;;;;22.59;52.82
76994;BME280;65927;47.508;19.002;2022-12-18T17:30:53;;;;22.68;52.30
76994;BME280;65927;47.508;19.002;2022-12-18T17:31:28;;;;22.76;51.74
76994;BME280;65927;47.508;19.002;2022-12-18T17:32:02;;;;22.82;51.57
76994;BME280;65927;47.508;19.002;2022-12-18T17:32:35;;;;22.87;51.32
76994;BME280;65927;47.508;19.002;2022-12-18T17:33:09;;;;22.91;51.30
76994;BME280;65927;47.508;19.002;2022-12-18T17:33:42;;;;22.93;51.16
76994;BME280;65927;47.508;19.002;2022-12-18T17:34:15;;;;22.89;51.35
76994;BME280;65927;47.508;19.002;2022-12-18T17:34:49;;;;22.88;51.48
76994;BME280;65927;47.508;19.002;2022-12-18T17:35:22;;;;22.88;51.04
76994;BME280;65927;47.508;19.002;2022-12-18T17:35:57;;;;22.85;51.24
76994;BME280;65927;47.508;19.002;2022-12-18T17:36:31;;;;22.85;51.59
76994;BME280;65927;47.508;19.002;2022-12-18T17:37:05;;;;22.86;51.43
76994;BME280;65927;47.508;19.002;2022-12-18T17:37:38;;;;22.84;51.09
76994;BME280;65927;47.508;19.002;2022-12-18T17:38:15;;;;22.76;50.97
76994;BME280;65927;47.508;19.002;2022-12-18T17:38:52;;;;22.68;51.29
76994;BME280;65927;47.508;19.002;2022-12-18T17:39:26;;;;22.63;51.48
76994;BME280;65927;47.508;19.002;2022-12-18T17:40:00;;;;22.59;51.82
76994;BME280;65927;47.508;19.002;2022-12-18T17:40:33;;;;22.55;51.61
76994;BME280;65927;47.508;19.002;2022-12-18T17:41:09;;;;22.52;51.77
76994;BME280;65927;47.508;19.002;2022-12-18T17:41:43;;;;22.51;52.03
76994;BME280;65927;47.508;19.002;2022-12-18T17:42:16;;;;22.53;51.89
76994;BME280;65927;47.508;19.002;2022-12-18T17:42:51;;;;22.56;51.95
76994;BME280;65927;47.508;19.002;2022-12-18T17:43:25;;;;22.58;51.85
76994;BME280;65927;47.508;19.002;2022-12-18T17:44:00;;;;22.58;51.79
76994;BME280;65927;47.508;19.002;2022-12-18T17:44:34;;;;22.59;51.53
76994;BME280;65927;47.508;19.002;2022-12-18T17:45:08;;;;22.58;51.79
76994;BME280;65927;47.508;19.002;2022-12-18T17:45:41;;;;22.57;51.79
76994;BME280;65927;47.508;19.002;2022-12-18T17:46:15;;;;22.57;51.79
76994;BME280;65927;47.508;19.002;2022-12-18T17:46:48;;;;22.56;51.92
76994;BME280;65927;47.508;19.002;2022-12-18T17:47:22;;;;22.57;52.23
76994;BME280;65927;47.508;19.002;2022-12-18T17:47:55;;;;22.60;52.10
76994;BME280;65927;47.508;19.002;2022-12-18T17:48:31;;;;22.70;52.30
76994;BME280;65927;47.508;19.002;2022-12-18T17:49:05;;;;23.12;51.52
76994;BME280;65927;47.508;19.002;2022-12-18T17:49:38;;;;23.61;49.87
76994;BME280;65927;47.508;19.002;2022-12-18T17:50:12;;;;23.70;50.06
76994;BME280;65927;47.508;19.002;2022-12-18T17:50:45;;;;23.70;49.94
76994;BME280;65927;47.508;19.002;2022-12-18T17:51:18;;;;23.75;49.91
76994;BME280;65927;47.508;19.002;2022-12-18T17:51:52;;;;24.13;49.21
76994;BME280;65927;47.508;19.002;2022-12-18T17:52:25;;;;24.52;48.46
76994;BME280;65927;47.508;19.002;2022-12-18T17:52:59;;;;24.68;48.03
76994;BME280;65927;47.508;19.002;2022-12-18T17:53:32;;;;24.81;47.64
76994;BME280;65927;47.508;19.002;2022-12-18T17:54:06;;;;24.88;47.40
76994;BME280;65927;47.508;19.002;2022-12-18T17:54:39;;;;24.89;47.22
76994;BME280;65927;47.508;19.002;2022-12-18T17:55:13;;;;24.93;46.98
76994;BME280;65927;47.508;19.002;2022-12-18T17:55:53;;;;24.95;47.00
76994;BME280;65927;47.508;19.002;2022-12-18T17:56:27;;;;24.94;46.27
76994;BME280;65927;47.508;19.002;2022-12-18T17:57:01;;;;24.84;46.11
76994;BME280;65927;47.508;19.002;2022-12-18T17:57:35;;;;24.63;46.61
76994;BME280;65927;47.508;19.002;2022-12-18T17:58:08;;;;24.49;47.32
76994;BME280;65927;47.508;19.002;2022-12-18T17:58:42;;;;24.44;47.52
76994;BME280;65927;47.508;19.002;2022-12-18T18:00:16;;;;28.64;37.64
76994;BME280;65927;47.508;19.002;2022-12-18T18:00:50;;;;25.43;42.41
76994;BME280;65927;47.508;19.002;2022-12-18T18:01:24;;;;24.00;47.62
76994;BME280;65927;47.508;19.002;2022-12-18T18:01:58;;;;23.44;49.19
76994;BME280;65927;47.508;19.002;2022-12-18T18:02:32;;;;23.12;50.31
76994;BME280;65927;47.508;19.002;2022-12-18T18:03:06;;;;23.25;50.40
76994;BME280;65927;47.508;19.002;2022-12-18T18:03:41;;;;23.54;49.61
76994;BME280;65927;47.508;19.002;2022-12-18T18:04:15;;;;23.68;49.09
76994;BME280;65927;47.508;19.002;2022-12-18T18:04:49;;;;23.73;48.74
76994;BME280;65927;47.508;19.002;2022-12-18T18:05:22;;;;23.76;48.11
76994;BME280;65927;47.508;19.002;2022-12-18T18:05:57;;;;23.72;48.19
76994;BME280;65927;47.508;19.002;2022-12-18T18:06:30;;;;23.71;48.31
76994;BME280;65927;47.508;19.002;2022-12-18T18:07:07;;;;23.72;48.69
76994;BME280;65927;47.508;19.002;2022-12-18T18:07:40;;;;23.74;48.84
76994;BME280;65927;47.508;19.002;2022-12-18T18:08:14;;;;23.68;48.58
76994;BME280;65927;47.508;19.002;2022-12-18T18:08:47;;;;23.51;49.21
76994;BME280;65927;47.508;19.002;2022-12-18T18:09:21;;;;23.46;49.52
76994;BME280;65927;47.508;19.002;2022-12-18T18:09:54;;;;23.46;49.73
76994;BME280;65927;47.508;19.002;2022-12-18T18:10:27;;;;23.43;49.67
76994;BME280;65927;47.508;19.002;2022-12-18T18:11:07;;;;23.40;49.55
76994;BME280;65927;47.508;19.002;2022-12-18T18:11:59;;;;23.42;49.76
76994;BME280;65927;47.508;19.002;2022-12-18T18:12:51;;;;23.36;49.44
76994;BME280;65927;47.508;19.002;2022-12-18T18:13:47;;;;23.18;49.62
76994;BME280;65927;47.508;19.002;2022-12-18T18:14:32;;;;23.07;50.02
76994;BME280;65927;47.508;19.002;2022-12-18T18:15:06;;;;23.02;50.04
76994;BME280;65927;47.508;19.002;2022-12-18T18:15:39;;;;22.98;49.99
76994;BME280;65927;47.508;19.002;2022-12-18T18:16:13;;;;22.95;50.04
76994;BME280;65927;47.508;19.002;2022-12-18T18:16:49;;;;22.93;50.05
76994;BME280;65927;47.508;19.002;2022-12-18T18:17:23;;;;22.90;50.22
76994;BME280;65927;47.508;19.002;2022-12-18T18:17:56;;;;22.88;51.13
76994;BME280;65927;47.508;19.002;2022-12-18T18:30:17;101814.78;;;21.10;51.22
76994;BME280;65927;47.508;19.002;2022-12-18T18:30:50;101818.34;;;21.11;51.06
76994;BME280;65927;47.508;19.002;2022-12-18T18:31:25;101817.34;;;21.12;51.06
76994;BME280;65927;47.508;19.002;2022-12-18T18:31:59;101817.34;;;21.12;51.62
76994;BME280;65927;47.508;19.002;2022-12-18T18:32:33;101819.03;;;21.13;51.74
76994;BME280;65927;47.508;19.002;2022-12-18T18:33:12;101821.75;;;21.13;51.43
76994;BME280;65927;47.508;19.002;2022-12-18T18:33:48;101827.22;;;21.13;51.81
76994;BME280;65927;47.508;19.002;2022-12-18T18:49:14;101851.56;;;21.00;52.04
76994;BME280;65927;47.508;19.002;2022-12-18T18:49:48;101840.66;;;21.00;51.48
76994;BME280;65927;47.508;19.002;2022-12-18T18:50:22;101840.66;;;21.00;51.21
76994;BME280;65927;47.508;19.002;2022-12-18T18:51:15;101845.09;;;21.01;51.59
76994;BME280;65927;47.508;19.002;2022-12-18T18:59:00;;;;26.83;40.82
76994;BME280;65927;47.508;19.002;2022-12-18T18:59:33;;;;25.78;42.39
76994;BME280;65927;47.508;19.002;2022-12-18T19:00:07;;;;24.27;46.10
76994;BME280;65927;47.508;19.002;2022-12-18T19:00:41;;;;23.56;48.86
76994;BME280;65927;47.508;19.002;2022-12-18T19:01:17;;;;23.56;49.35
76994;BME280;65927;47.508;19.002;2022-12-18T19:01:50;;;;23.48;49.16
76994;BME280;65927;47.508;19.002;2022-12-18T19:02:24;;;;23.13;49.95
76994;BME280;65927;47.508;19.002;2022-12-18T19:02:57;;;;22.92;50.59
76994;BME280;65927;47.508;19.002;2022-12-18T19:03:32;;;;22.76;51.07
76994;BME280;65927;47.508;19.002;2022-12-18T19:04:06;;;;22.58;51.62
76994;BME280;65927;47.508;19.002;2022-12-18T19:04:39;;;;22.49;51.90
76994;BME280;65927;47.508;19.002;2022-12-18T19:05:17;;;;22.51;52.03
76994;BME280;65927;47.508;19.002;2022-12-18T19:05:52;;;;22.57;51.69
76994;BME280;65927;47.508;19.002;2022-12-18T19:06:27;;;;22.61;51.56
76994;BME280;65927;47.508;19.002;2022-12-18T19:07:02;;;;22.66;51.55
76994;BME280;65927;47.508;19.002;2022-12-18T19:07:35;;;;22.70;51.26
76994;BME280;65927;47.508;19.002;2022-12-18T19:08:08;;;;22.75;51.01
76994;BME280;65927;47.508;19.002;2022-12-18T19:08:42;;;;22.78;50.94
76994;BME280;65927;47.508;19.002;2022-12-18T19:09:17;;;;22.87;51.43
76994;BME280;65927;47.508;19.002;2022-12-18T19:09:51;;;;22.98;51.16
76994;BME280;65927;47.508;19.002;2022-12-18T19:10:25;;;;23.02;50.80
76994;BME280;65927;47.508;19.002;2022-12-18T19:11:00;;;;23.05;50.58
76994;BME280;65927;47.508;19.002;2022-12-18T19:11:33;;;;23.07;50.68
76994;BME280;65927;47.508;19.002;2022-12-18T19:15:45;;;;24.31;47.10
76994;BME280;65927;47.508;19.002;2022-12-18T19:16:18;;;;24.31;47.04
76994;BME280;65927;47.508;19.002;2022-12-18T19:16:54;;;;24.18;47.21
76994;BME280;65927;47.508;19.002;2022-12-18T19:17:29;;;;24.09;47.76
76994;BME280;65927;47.508;19.002;2022-12-18T19:18:02;;;;24.09;47.82
76994;BME280;65927;47.508;19.002;2022-12-18T19:18:36;;;;24.12;47.66
76994;BME280;65927;47.508;19.002;2022-12-18T19:19:10;;;;24.13;47.79
76994;BME280;65927;47.508;19.002;2022-12-18T19:19:44;;;;24.13;47.82
76994;BME280;65927;47.508;19.002;2022-12-18T19:20:17;;;;24.12;47.65
76994;BME280;65927;47.508;19.002;2022-12-18T19:20:58;;;;24.06;47.74
76994;BME280;65927;47.508;19.002;2022-12-18T19:21:33;;;;23.98;47.98
76994;BME280;65927;47.508;19.002;2022-12-18T19:22:06;;;;23.95;48.08
76994;BME280;65927;47.508;19.002;2022-12-18T19:22:40;;;;23.93;48.18
76994;BME280;65927;47.508;19.002;2022-12-18T19:23:16;;;;23.88;48.31
76994;BME280;65927;47.508;19.002;2022-12-18T19:23:50;;;;23.80;48.47
76994;BME280;65927;47.508;19.002;2022-12-18T19:26:46;101878.06;;;21.28;51.05
76994;BME280;65927;47.508;19.002;2022-12-18T19:27:19;101877.22;;;21.28;50.99
76994;BME280;65927;47.508;19.002;2022-12-18T19:27:53;101870.06;;;21.27;50.98
76994;BME280;65927;47.508;19.002;2022-12-18T19:28:27;101872.81;;;21.27;51.02
76994;BME280;65927;47.508;19.002;2022-12-18T19:29:05;101873.81;;;21.26;50.65
76994;BME280;65927;47.508;19.002;2022-12-18T19:29:39;101876.75;;;21.24;50.72
76994;BME280;65927;47.508;19.002;2022-12-18T19:30:42;101883.91;;;21.25;50.74
76994;BME280;65927;47.508;19.002;2022-12-18T19:31:34;101892.28;;;21.24;51.09
76994;BME280;65927;47.508;19.002;2022-12-18T19:32:14;101884.28;;;21.22;50.44
76994;BME280;65927;47.508;19.002;2022-12-18T19:32:55;101889.75;;;21.22;51.00
76994;BME280;65927;47.508;19.002;2022-12-18T19:34:57;101886.56;;;21.19;50.68
76994;BME280;65927;47.508;19.002;2022-12-18T19:38:18;101881.16;;;21.25;50.73
76994;BME280;65927;47.508;19.002;2022-12-18T19:38:52;101887.69;;;21.24;51.01
76994;BME280;65927;47.508;19.002;2022-12-18T19:39:25;101887.69;;;21.24;51.17
76994;BME280;65927;47.508;19.002;2022-12-18T19:40:14;101881.34;;;21.24;50.97
76994;BME280;65927;47.508;19.002;2022-12-18T19:40:54;101888.53;;;21.25;50.69
76994;BME280;65927;47.508;19.002;2022-12-18T19:41:34;101882.22;;;21.24;51.04
76994;BME280;65927;47.508;19.002;2022-12-18T19:42:32;101887.47;;;21.26;51.01
76994;BME280;65927;47.508;19.002;2022-12-18T19:43:07;101882.03;;;21.26;50.77
76994;BME280;65927;47.508;19.002;2022-12-18T19:43:41;101886.63;;;21.25;50.68
76994;BME280;65927;47.508;19.002;2022-12-18T19:44:16;101886.47;;;21.27;50.71
76994;BME280;65927;47.508;19.002;2022-12-18T19:44:50;101889.19;;;21.27;51.16
76994;BME280;65927;47.508;19.002;2022-12-18T19:45:24;101893.59;;;21.28;50.94
76994;BME280;65927;47.508;19.002;2022-12-18T19:45:59;101899.06;;;21.28;51.16
76994;BME280;65927;47.508;19.002;2022-12-18T19:46:33;101892.75;;;21.27;50.80
76994;BME280;65927;47.508;19.002;2022-12-18T19:47:13;101894.66;;;21.27;50.48
76994;BME280;65927;47.508;19.002;2022-12-18T19:47:47;101891.25;;;21.25;50.59
76994;BME280;65927;47.508;19.002;2022-12-18T19:48:21;101894.00;;;21.25;50.84
76994;BME280;65927;47.508;19.002;2022-12-18T19:48:55;101894.81;;;21.25;51.18
76994;BME280;65927;47.508;19.002;2022-12-18T19:49:32;101895.00;;;21.24;51.15
76994;BME280;65927;47.508;19.002;2022-12-18T19:50:07;101897.75;;;21.24;51.09
76994;BME280;65927;47.508;19.002;2022-12-18T19:50:41;101895.88;;;21.24;51.22
76994;BME280;65927;47.508;19.002;2022-12-18T19:51:21;101898.59;;;21.24;51.10
76994;BME280;65927;47.508;19.002;2022-12-18T19:51:55;101900.47;;;21.24;51.06
